Terminal Aerodrome Forecast
Issued by NWS Boston, MA

Home | Current Version | Previous Version | Text Only | Print | Product List | Glossary On
Versions: 1 2 3 4 5 6 7 8 9 10 11 12 13 14 15 16 17 18 19 20 21 22 23 24 25 26 27 28 29 30 31 32 33 34 35 36 37 38 39 40 41 42 43 44 45 46 47
000
FTUS41 KBOX 050535
TAFBOS
TAF
KBOS 050535Z 0506/0612 23014KT P6SM BKN080 WS020/24045KT
     FM051200 28010KT P6SM OVC070
     FM051500 VRB03KT P6SM BKN140
     FM051700 12008KT P6SM SCT200
     FM060100 16006KT P6SM SCT200
     FM060300 23005KT P6SM SCT200=

USA.gov is the U.S. government's official web portal to all federal, state and local government web resources and services.